createdAt,value
2019-01-16T00:00:35.542Z,100492.02
2019-01-16T00:03:06.975Z,100493.56
2019-01-16T00:05:47.364Z,100494.72
2019-01-16T00:08:36.570Z,100492.91
2019-01-16T00:11:20.096Z,100493.56
2019-01-16T00:13:54.046Z,100485.38
2019-01-16T00:16:25.233Z,100487.69
2019-01-16T00:19:05.028Z,100493.57
2019-01-16T00:21:45.475Z,100495.04
2019-01-16T00:24:32.972Z,100488.87
2019-01-16T00:27:07.145Z,100489.14
2019-01-16T00:29:38.328Z,100490.98
2019-01-16T00:32:12.196Z,100494.73
2019-01-16T00:34:46.314Z,100492.92
2019-01-16T00:37:17.497Z,100487.52
2019-01-16T00:39:51.376Z,100487.13
2019-01-16T00:42:42.115Z,100494.54
2019-01-16T00:45:25.373Z,100492.15
2019-01-16T00:48:02.083Z,100496.39
2019-01-16T00:50:39.033Z,100488.94
2019-01-16T00:53:10.254Z,100492.23
2019-01-16T00:55:44.644Z,100482.01
2019-01-16T00:58:32.261Z,100489.73
2019-01-16T01:01:03.505Z,100498.61
2019-01-16T01:03:41.170Z,100497.75
2019-01-16T01:06:18.425Z,100493.20
2019-01-16T01:08:52.115Z,100487.22
2019-01-16T01:11:25.996Z,100485.98
2019-01-16T01:14:12.334Z,100492.81
2019-01-16T01:16:43.758Z,100489.16
2019-01-16T01:19:24.249Z,100474.02
2019-01-16T01:22:01.539Z,100484.06
2019-01-16T01:24:32.793Z,100479.12
2019-01-16T01:27:06.396Z,100474.11
2019-01-16T01:29:46.901Z,100482.13
2019-01-16T01:32:33.274Z,100475.47
2019-01-16T01:35:04.395Z,100470.45
2019-01-16T01:37:51.495Z,100478.85
2019-01-16T01:40:22.658Z,100477.39
2019-01-16T01:42:53.825Z,100480.27
2019-01-16T01:45:27.702Z,100483.37
2019-01-16T01:48:11.318Z,100484.25
2019-01-16T01:50:45.007Z,100483.09
2019-01-16T01:53:16.615Z,100475.27
2019-01-16T01:55:47.992Z,100473.52
2019-01-16T01:58:28.281Z,100479.12
2019-01-16T02:00:59.649Z,100481.25
2019-01-16T02:03:36.377Z,100479.70
2019-01-16T02:06:10.618Z,100474.89
2019-01-16T02:08:44.687Z,100467.48
2019-01-16T02:11:18.543Z,100469.58
2019-01-16T02:14:06.984Z,100467.10
2019-01-16T02:16:40.944Z,100468.61
2019-01-16T02:19:12.137Z,100476.94
2019-01-16T02:21:52.181Z,100468.06
2019-01-16T02:24:25.846Z,100471.62
2019-01-16T02:27:02.806Z,100469.30
2019-01-16T02:29:50.111Z,100475.67
2019-01-16T02:32:33.414Z,100466.03
2019-01-16T02:35:06.023Z,100465.26
2019-01-16T02:37:37.251Z,100461.02
2019-01-16T02:40:17.122Z,100456.39
2019-01-16T02:42:50.993Z,100456.19
2019-01-16T02:45:37.408Z,100461.20
2019-01-16T02:48:14.798Z,100456.20
2019-01-16T02:50:57.908Z,100446.16
2019-01-16T02:53:45.233Z,100456.47
2019-01-16T02:56:16.609Z,100454.84
2019-01-16T02:58:53.836Z,100454.95
2019-01-16T03:01:28.340Z,100458.12
2019-01-16T03:04:15.720Z,100449.55
2019-01-16T03:06:52.391Z,100456.89
2019-01-16T03:09:38.620Z,100440.19
2019-01-16T03:12:18.891Z,100443.27
2019-01-16T03:14:59.442Z,100441.14
2019-01-16T03:17:34.208Z,100439.61
2019-01-16T03:20:15.506Z,100435.75
2019-01-16T03:22:46.952Z,100428.34
2019-01-16T03:25:34.533Z,100429.09
2019-01-16T03:28:20.820Z,100428.04
2019-01-16T03:30:58.458Z,100417.23
2019-01-16T03:33:41.852Z,100417.63
2019-01-16T03:36:13.223Z,100409.83
2019-01-16T03:38:44.701Z,100409.80
2019-01-16T03:41:32.280Z,100402.39
2019-01-16T03:44:03.657Z,100406.45
2019-01-16T03:46:43.908Z,100406.72
2019-01-16T03:49:31.274Z,100407.33
2019-01-16T03:52:11.755Z,100396.03
2019-01-16T03:54:45.667Z,100403.74
2019-01-16T03:57:22.520Z,100389.17
2019-01-16T04:00:02.915Z,100403.37
2019-01-16T04:02:40.235Z,100405.29
2019-01-16T04:05:23.515Z,100404.52
2019-01-16T04:07:54.825Z,100404.33
2019-01-16T04:10:42.426Z,100397.96
2019-01-16T04:13:25.789Z,100387.93
2019-01-16T04:15:59.645Z,100394.00
2019-01-16T04:18:33.544Z,100388.33
2019-01-16T04:21:07.821Z,100396.81
2019-01-16T04:23:45.020Z,100390.45
2019-01-16T04:26:16.231Z,100386.78
2019-01-16T04:28:47.508Z,100383.20
2019-01-16T04:31:27.365Z,100381.95
2019-01-16T04:34:01.582Z,100382.83
2019-01-16T04:36:51.153Z,100372.90
2019-01-16T04:39:25.176Z,100377.33
2019-01-16T04:42:05.139Z,100373.27
2019-01-16T04:44:39.148Z,100370.20
2019-01-16T04:47:10.568Z,100371.16
2019-01-16T04:49:59.402Z,100373.58
2019-01-16T04:52:30.660Z,100365.37
2019-01-16T04:55:14.084Z,100362.20
2019-01-16T04:58:00.223Z,100351.88
2019-01-16T05:00:49.595Z,100358.62
2019-01-16T05:03:38.951Z,100359.00
2019-01-16T05:06:28.434Z,100356.50
2019-01-16T05:08:59.681Z,100357.77
2019-01-16T05:11:31.061Z,100355.33
2019-01-16T05:14:02.470Z,100347.91
2019-01-16T05:16:40.009Z,100348.77
2019-01-16T05:19:14.349Z,100337.41
2019-01-16T05:21:51.885Z,100342.42
2019-01-16T05:24:37.822Z,100342.02
2019-01-16T05:27:24.864Z,100338.55
2019-01-16T05:30:12.536Z,100345.78
2019-01-16T05:32:43.765Z,100340.60
2019-01-16T05:35:31.284Z,100343.09
2019-01-16T05:38:19.607Z,100328.45
2019-01-16T05:40:53.747Z,100324.49
2019-01-16T05:43:41.311Z,100322.56
2019-01-16T05:46:21.704Z,100311.85
2019-01-16T05:52:22.873Z,100319.86
2019-01-16T05:52:42.621Z,100316.31
2019-01-16T05:55:08.968Z,100309.64
2019-01-16T05:57:52.132Z,100306.36
2019-01-16T06:00:39.638Z,100308.00
2019-01-16T06:03:26.157Z,100309.44
2019-01-16T06:06:13.661Z,100300.40
2019-01-16T06:08:47.592Z,100311.09
2019-01-16T06:11:24.359Z,100307.24
2019-01-16T06:13:55.765Z,100291.72
2019-01-16T06:16:36.137Z,100287.05
2019-01-16T06:19:22.218Z,100295.83
2019-01-16T06:22:09.639Z,100285.50
2019-01-16T06:24:47.229Z,100286.26
2019-01-16T06:27:21.587Z,100289.25
2019-01-16T06:29:52.823Z,100284.53
2019-01-16T06:32:40.230Z,100280.56
2019-01-16T06:35:14.761Z,100277.75
2019-01-16T06:37:51.997Z,100286.44
2019-01-16T06:40:29.917Z,100285.64
2019-01-16T06:43:13.343Z,100288.34
2019-01-16T06:45:47.208Z,100284.97
2019-01-16T06:48:21.246Z,100283.70
2019-01-16T06:51:01.458Z,100283.32
2019-01-16T06:53:44.712Z,100271.93
2019-01-16T06:56:31.303Z,100280.00
2019-01-16T06:59:02.505Z,100278.63
2019-01-16T07:01:45.253Z,100277.89
2019-01-16T07:04:16.412Z,100272.11
2019-01-16T07:06:50.264Z,100273.83
2019-01-16T07:09:27.373Z,100275.30
2019-01-16T07:12:04.305Z,100278.22
2019-01-16T07:14:41.334Z,100268.17
2019-01-16T07:17:18.569Z,100268.09
2019-01-16T07:20:09.348Z,100267.00
2019-01-16T07:22:34.575Z,100271.13
2019-01-16T07:25:12.645Z,100271.52
2019-01-16T07:27:49.643Z,100279.73
2019-01-16T07:30:20.815Z,100269.57
2019-01-16T07:33:10.371Z,100270.28
2019-01-16T07:35:41.584Z,100272.61
2019-01-16T07:38:12.774Z,100255.86
2019-01-16T07:40:44.214Z,100260.13
2019-01-16T07:43:30.711Z,100261.27
2019-01-16T07:46:01.903Z,100266.20
2019-01-16T07:48:41.795Z,100262.78
2019-01-16T07:51:12.977Z,100265.14
2019-01-16T07:53:44.159Z,100254.25
2019-01-16T07:56:21.171Z,100264.72
2019-01-16T07:58:55.256Z,100251.81
2019-01-16T08:01:42.777Z,100262.40
2019-01-16T08:04:14.169Z,100253.33
2019-01-16T08:07:01.360Z,100260.08
2019-01-16T08:09:48.779Z,100247.91
2019-01-16T08:12:20.019Z,100239.38
2019-01-16T08:14:53.824Z,100246.95
2019-01-16T08:17:25.184Z,100243.65
2019-01-16T08:20:12.831Z,100229.55
2019-01-16T08:22:56.017Z,100245.38
2019-01-16T08:25:27.190Z,100240.36
2019-01-16T08:28:14.806Z,100232.47
2019-01-16T08:30:56.403Z,100231.33
2019-01-16T08:33:30.592Z,100223.34
2019-01-16T08:36:14.092Z,100223.81
2019-01-16T08:39:01.912Z,100224.41
2019-01-16T08:41:33.601Z,100227.39
2019-01-16T08:44:19.943Z,100227.23
2019-01-16T08:47:03.310Z,100235.00
2019-01-16T08:49:51.052Z,100232.80
2019-01-16T08:52:31.685Z,100216.89
2019-01-16T08:55:11.878Z,100227.98
2019-01-16T08:57:59.196Z,100222.37
2019-01-16T09:00:39.345Z,100214.05
2019-01-16T09:03:10.684Z,100214.64
2019-01-16T09:05:57.992Z,100211.34
2019-01-16T09:08:34.882Z,100209.02
2019-01-16T09:11:06.054Z,100199.34
2019-01-16T09:13:46.038Z,100206.41
2019-01-16T09:16:19.892Z,100197.11
2019-01-16T09:19:07.207Z,100203.78
2019-01-16T09:21:42.854Z,100200.36
2019-01-16T09:24:23.242Z,100207.62
2019-01-16T09:27:10.664Z,100203.72
2019-01-16T09:29:58.376Z,100203.06
2019-01-16T09:32:32.582Z,100203.06
2019-01-16T09:35:18.870Z,100200.64
2019-01-16T09:37:52.941Z,100191.12
2019-01-16T09:40:32.959Z,100195.92
2019-01-16T09:43:09.627Z,100199.89
2019-01-16T09:45:40.984Z,100188.95
2019-01-16T09:48:14.958Z,100184.43
2019-01-16T09:50:47.924Z,100179.94
2019-01-16T09:53:19.074Z,100177.45
2019-01-16T09:55:56.099Z,100181.98
2019-01-16T09:58:33.169Z,100175.22
2019-01-16T10:01:20.357Z,100177.92
2019-01-16T10:03:57.161Z,100175.88
2019-01-16T10:06:28.463Z,100176.86
2019-01-16T10:08:59.817Z,100171.45
2019-01-16T10:11:42.965Z,100166.89
2019-01-16T10:14:22.998Z,100168.31
2019-01-16T10:16:57.139Z,100168.53
2019-01-16T10:19:46.730Z,100165.61
2019-01-16T10:22:17.873Z,100160.20
2019-01-16T10:24:51.475Z,100160.64
2019-01-16T10:27:25.660Z,100160.20
2019-01-16T10:30:08.957Z,100151.49
2019-01-16T10:32:56.433Z,100152.25
2019-01-16T10:35:30.375Z,100154.57
2019-01-16T10:38:18.118Z,100145.62
2019-01-16T10:40:52.016Z,100135.43
2019-01-16T10:43:26.158Z,100117.11
2019-01-16T10:46:13.385Z,100139.93
2019-01-16T10:48:50.466Z,100131.59
2019-01-16T10:51:27.145Z,100129.12
2019-01-16T10:54:04.141Z,100128.67
2019-01-16T10:56:35.320Z,100117.86
2019-01-16T10:59:22.509Z,100119.40
2019-01-16T11:01:53.683Z,100120.34
2019-01-16T11:04:24.865Z,100105.88
2019-01-16T11:07:01.616Z,100102.52
2019-01-16T11:09:50.287Z,100097.05
2019-01-16T11:12:21.469Z,100103.06
2019-01-16T11:14:58.502Z,100098.10
2019-01-16T11:17:29.859Z,100091.51
2019-01-16T11:20:06.772Z,100089.31
2019-01-16T11:22:44.325Z,100076.11
2019-01-16T11:25:33.878Z,100092.92
2019-01-16T11:28:18.545Z,100086.45
2019-01-16T11:31:01.787Z,100083.38
2019-01-16T11:33:42.138Z,100069.88
2019-01-16T11:36:15.880Z,100072.55
2019-01-16T11:38:59.128Z,100070.91
2019-01-16T11:41:41.840Z,100062.20
2019-01-16T11:44:22.222Z,100053.63
2019-01-16T11:46:53.322Z,100052.91
2019-01-16T11:49:27.330Z,100047.28
2019-01-16T11:52:14.735Z,100039.55
2019-01-16T11:55:02.125Z,100025.95
2019-01-16T11:57:45.377Z,100021.15
2019-01-16T12:00:19.684Z,100021.00
2019-01-16T12:02:50.898Z,100033.19
2019-01-16T12:05:22.095Z,100028.76
2019-01-16T12:07:53.260Z,100010.07
2019-01-16T12:10:24.450Z,100021.03
2019-01-16T12:12:55.671Z,100004.08
2019-01-16T12:15:43.232Z,100003.92
2019-01-16T12:18:14.438Z,100004.80
2019-01-16T12:21:02.237Z,99987.63
2019-01-16T12:23:33.542Z,99993.77
2019-01-16T12:26:19.884Z,99987.25
2019-01-16T12:28:54.121Z,99978.77
2019-01-16T12:31:25.272Z,99982.67
2019-01-16T12:34:14.548Z,99978.86
2019-01-16T12:36:48.440Z,99978.77
2019-01-16T12:39:35.511Z,99970.81
2019-01-16T12:42:18.911Z,99974.73
2019-01-16T12:44:51.139Z,99973.02
2019-01-16T12:47:28.351Z,99957.69
2019-01-16T12:50:08.338Z,99951.03
2019-01-16T12:52:39.538Z,99952.38
2019-01-16T12:55:10.877Z,99949.45
2019-01-16T12:57:58.141Z,99947.36
2019-01-16T13:00:47.473Z,99942.31
2019-01-16T13:03:27.563Z,99941.80
2019-01-16T13:06:01.729Z,99949.30
2019-01-16T13:08:41.407Z,99939.63
2019-01-16T13:11:21.755Z,99944.50
2019-01-16T13:13:55.464Z,99935.93
2019-01-16T13:16:29.161Z,99937.23
2019-01-16T13:19:06.133Z,99924.23
2019-01-16T13:21:40.037Z,99930.00
2019-01-16T13:24:10.342Z,99928.73
2019-01-16T13:26:58.119Z,99924.30
2019-01-16T13:29:37.358Z,99913.38
2019-01-16T13:32:13.838Z,99915.98
2019-01-16T13:34:47.836Z,99919.05
2019-01-16T13:37:19.055Z,99910.82
2019-01-16T13:39:53.001Z,99906.91
2019-01-16T13:42:24.228Z,99915.70
2019-01-16T13:44:55.527Z,99908.25
2019-01-16T13:47:29.454Z,99906.17
2019-01-16T13:50:17.040Z,99900.84
2019-01-16T13:52:50.894Z,99906.53
2019-01-16T13:55:37.443Z,99896.42
2019-01-16T13:58:14.535Z,99889.58
2019-01-16T14:00:54.512Z,99896.20
2019-01-16T14:03:42.024Z,99895.95
2019-01-16T14:06:19.384Z,99896.27
2019-01-16T14:08:50.525Z,99891.98
2019-01-16T14:11:34.000Z,99891.63
2019-01-16T14:14:07.964Z,99899.85
2019-01-16T14:16:48.413Z,99887.42
2019-01-16T14:19:31.537Z,99887.95
2019-01-16T14:22:11.825Z,99886.37
2019-01-16T14:24:51.853Z,99892.73
2019-01-16T14:27:35.074Z,99877.75
2019-01-16T14:30:12.172Z,99884.35
2019-01-16T14:32:45.929Z,99876.67
2019-01-16T14:35:20.201Z,99867.78
2019-01-16T14:38:07.310Z,99877.97
2019-01-16T14:40:44.610Z,99870.10
2019-01-16T14:43:21.915Z,99869.36
2019-01-16T14:46:11.329Z,99862.61
2019-01-16T14:48:42.516Z,99870.55
2019-01-16T14:51:19.073Z,99865.38
2019-01-16T14:53:50.497Z,99869.78
2019-01-16T14:56:21.930Z,99866.58
2019-01-16T14:58:56.098Z,99858.86
2019-01-16T15:01:27.342Z,99853.83
2019-01-16T15:04:07.905Z,99864.86
2019-01-16T15:06:45.049Z,99863.13
2019-01-16T15:09:32.774Z,99858.66
2019-01-16T15:12:10.183Z,99856.17
2019-01-16T15:14:54.322Z,99862.10
2019-01-16T15:17:31.099Z,99857.53
2019-01-16T15:20:12.041Z,99865.77
2019-01-16T15:22:43.196Z,99855.33
2019-01-16T15:25:17.109Z,99847.98
2019-01-16T15:27:51.215Z,99859.47
2019-01-16T15:30:38.793Z,99852.95
2019-01-16T15:33:19.251Z,99852.20
2019-01-16T15:36:02.508Z,99845.95
2019-01-16T15:38:33.678Z,99851.42
2019-01-16T15:41:10.459Z,99854.15
2019-01-16T15:43:41.863Z,99849.73
2019-01-16T15:46:16.165Z,99849.70
2019-01-16T15:49:02.311Z,99841.17
2019-01-16T15:51:33.485Z,99841.67
2019-01-16T15:54:04.635Z,99840.17
2019-01-16T15:56:35.965Z,99842.59
2019-01-16T15:59:09.898Z,99842.59
2019-01-16T16:01:57.265Z,99834.43
2019-01-16T16:04:28.446Z,99828.44
2019-01-16T16:06:59.618Z,99837.72
2019-01-16T16:09:30.805Z,99826.56
2019-01-16T16:12:02.102Z,99818.97
2019-01-16T16:14:49.544Z,99822.67
2019-01-16T16:17:23.740Z,99819.57
2019-01-16T16:20:01.012Z,99813.67
2019-01-16T16:22:38.346Z,99810.22
2019-01-16T16:25:09.535Z,99813.64
2019-01-16T16:27:55.731Z,99814.86
2019-01-16T16:30:43.317Z,99805.65
2019-01-16T16:33:23.536Z,99797.47
2019-01-16T16:36:13.183Z,99795.17
2019-01-16T16:38:44.461Z,99787.45
2019-01-16T16:41:15.919Z,99794.86
2019-01-16T16:43:56.207Z,99789.78
2019-01-16T16:46:43.507Z,99775.55
2019-01-16T16:49:14.948Z,99777.41
2019-01-16T16:51:58.641Z,99775.96
2019-01-16T16:54:36.140Z,99772.67
2019-01-16T16:57:18.213Z,99764.80
2019-01-16T17:00:06.216Z,99758.50
2019-01-16T17:02:53.932Z,99758.22
2019-01-16T17:05:28.200Z,99758.22
2019-01-16T17:07:59.608Z,99745.87
2019-01-16T17:10:46.349Z,99744.52
2019-01-16T17:13:29.671Z,99743.61
2019-01-16T17:16:06.780Z,99740.23
2019-01-16T17:18:40.785Z,99731.70
2019-01-16T17:21:15.022Z,99727.22
2019-01-16T17:23:55.309Z,99728.77
2019-01-16T17:26:26.596Z,99715.16
2019-01-16T17:29:00.357Z,99717.01
2019-01-16T17:31:31.911Z,99715.75
2019-01-16T17:34:03.496Z,99721.46
2019-01-16T17:36:47.489Z,99717.42
2019-01-16T17:39:24.814Z,99720.34
2019-01-16T17:41:56.133Z,99714.91
2019-01-16T17:44:39.439Z,99716.58
2019-01-16T17:47:19.754Z,99705.52
2019-01-16T17:49:53.918Z,99704.52
2019-01-16T17:52:38.811Z,99699.13
2019-01-16T17:55:27.370Z,99698.90
2019-01-16T17:57:58.997Z,99685.20
2019-01-16T18:00:36.160Z,99688.50
2019-01-16T18:03:24.757Z,99682.05
2019-01-16T18:06:01.834Z,99674.96
2019-01-16T18:08:33.200Z,99661.39
2019-01-16T18:11:04.527Z,99663.44
2019-01-16T18:13:45.178Z,99668.20
2019-01-16T18:16:20.396Z,99665.13
2019-01-16T18:19:10.027Z,99665.88
2019-01-16T18:21:44.596Z,99659.89
2019-01-16T18:24:23.371Z,99657.05
2019-01-16T18:26:57.875Z,99649.71
2019-01-16T18:29:46.939Z,99647.84
2019-01-16T18:32:33.714Z,99642.45
2019-01-16T18:35:08.178Z,99643.89
2019-01-16T18:37:42.077Z,99634.22
2019-01-16T18:40:18.124Z,99653.30
2019-01-16T18:43:01.302Z,99641.86
2019-01-16T18:45:32.522Z,99634.50
2019-01-16T18:48:07.004Z,99638.55
2019-01-16T18:50:53.159Z,99637.45
2019-01-16T18:53:33.783Z,99633.98
2019-01-16T18:56:11.997Z,99623.30
2019-01-16T18:58:43.354Z,99611.11
2019-01-16T19:01:14.662Z,99613.03
2019-01-16T19:03:46.036Z,99606.77
2019-01-16T19:09:59.387Z,99612.13
2019-01-16T19:12:36.841Z,99605.79
2019-01-16T19:15:10.755Z,99603.69
2019-01-16T19:17:45.138Z,99603.22
2019-01-16T19:20:22.999Z,99601.50
2019-01-16T19:22:58.139Z,99606.89
2019-01-16T19:25:29.503Z,99583.81
2019-01-16T19:28:00.742Z,99596.52
2019-01-16T19:30:33.965Z,99592.98
2019-01-16T19:33:05.445Z,99585.75
2019-01-16T19:35:39.754Z,99591.05
2019-01-16T19:38:28.907Z,99591.48
2019-01-16T19:41:06.061Z,99583.28
2019-01-16T19:43:43.177Z,99585.34
2019-01-16T19:46:31.192Z,99585.57
2019-01-16T19:49:02.478Z,99576.74
2019-01-16T19:51:33.963Z,99586.57
2019-01-16T19:54:20.476Z,99566.72
2019-01-16T19:57:10.410Z,99567.47
2019-01-16T19:59:44.480Z,99565.63
2019-01-16T20:02:32.054Z,99559.71
2019-01-16T20:05:15.370Z,99555.67
2019-01-16T20:07:49.362Z,99550.70
2019-01-16T20:10:36.009Z,99557.34
2019-01-16T20:13:13.463Z,99543.44
2019-01-16T20:15:53.808Z,99549.95
2019-01-16T20:18:37.381Z,99553.02
2019-01-16T20:21:20.348Z,99541.50
2019-01-16T20:23:54.084Z,99540.97
2019-01-16T20:26:41.181Z,99535.21
2019-01-16T20:29:20.025Z,99534.46
2019-01-16T20:32:03.132Z,99533.95
2019-01-16T20:34:46.308Z,99524.34
2019-01-16T20:37:17.620Z,99521.00
2019-01-16T20:39:48.823Z,99512.52
2019-01-16T20:42:23.179Z,99510.61
2019-01-16T20:45:10.810Z,99505.95
2019-01-16T20:47:56.879Z,99498.94
2019-01-16T20:50:28.093Z,99508.95
2019-01-16T20:53:01.911Z,99506.86
2019-01-16T20:55:39.209Z,99487.95
2019-01-16T20:58:22.663Z,99497.66
2019-01-16T21:00:55.731Z,99488.34
2019-01-16T21:03:26.931Z,99486.02
2019-01-16T21:06:14.013Z,99486.17
2019-01-16T21:08:50.964Z,99477.86
2019-01-16T21:11:27.810Z,99479.20
2019-01-16T21:14:04.738Z,99480.27
2019-01-16T21:16:51.925Z,99474.78
2019-01-16T21:19:38.076Z,99471.12
2019-01-16T21:22:09.248Z,99465.59
2019-01-16T21:24:56.462Z,99455.35
2019-01-16T21:27:28.679Z,99460.80
2019-01-16T21:30:05.847Z,99448.70
2019-01-16T21:32:42.912Z,99451.98
2019-01-16T21:35:30.137Z,99438.30
2019-01-16T21:38:10.540Z,99435.09
2019-01-16T21:40:57.779Z,99433.00
2019-01-16T21:43:44.189Z,99421.41
2019-01-16T21:46:31.557Z,99417.75
2019-01-16T21:49:09.450Z,99418.30
2019-01-16T21:51:46.649Z,99420.02
2019-01-16T21:54:20.585Z,99418.64
2019-01-16T21:57:07.384Z,99410.88
2019-01-16T21:59:38.578Z,99411.57
2019-01-16T22:02:15.260Z,99423.80
2019-01-16T22:04:55.389Z,99406.31
2019-01-16T22:07:32.284Z,99409.75
2019-01-16T22:10:09.534Z,99409.45
2019-01-16T22:12:40.799Z,99398.17
2019-01-16T22:15:32.505Z,99394.75
2019-01-16T22:18:09.793Z,99398.31
2019-01-16T22:20:52.176Z,99397.29
2019-01-16T22:23:23.379Z,99394.88
2019-01-16T22:26:04.202Z,99395.27
2019-01-16T22:28:40.204Z,99386.98
2019-01-16T22:31:28.370Z,99394.28
2019-01-16T22:33:59.580Z,99390.72
2019-01-16T22:36:48.882Z,99379.41
2019-01-16T22:39:36.111Z,99382.10
2019-01-16T22:42:19.501Z,99381.73
2019-01-16T22:44:53.665Z,99370.23
2019-01-16T22:47:36.751Z,99368.50
2019-01-16T22:50:12.595Z,99363.88
2019-01-16T22:52:46.409Z,99368.65
2019-01-16T22:55:23.340Z,99356.77
2019-01-16T22:57:57.099Z,99357.98
2019-01-16T23:00:50.185Z,99363.97
2019-01-16T23:03:46.498Z,99356.69
2019-01-16T23:06:23.995Z,99363.88
2019-01-16T23:09:11.738Z,99360.72
2019-01-16T23:12:03.750Z,99344.08
2019-01-16T23:14:47.978Z,99346.90
2019-01-16T23:17:25.054Z,99331.27
2019-01-16T23:19:59.195Z,99334.94
2019-01-16T23:22:36.821Z,99331.13
2019-01-16T23:25:08.213Z,99320.88
2019-01-16T23:27:55.182Z,99318.43
2019-01-16T23:30:42.418Z,99298.02
2019-01-16T23:33:13.611Z,99312.22
2019-01-16T23:35:45.031Z,99305.63
2019-01-16T23:38:22.322Z,99299.64
2019-01-16T23:41:00.271Z,99293.84
2019-01-16T23:43:31.453Z,99296.80
2019-01-16T23:46:11.571Z,99307.28
2019-01-16T23:48:54.745Z,99301.81
2019-01-16T23:51:44.311Z,99308.04
2019-01-16T23:54:15.687Z,99316.25
2019-01-16T23:56:46.899Z,99311.70
2019-01-16T23:59:18.066Z,99329.70
